Time;durP1;ratioP1;P1;durP2;ratioP2;P2;SDS_P1;SDS_P2;PMS_P1;PMS_P2;Temp;Humidity;BMP_temperature;BMP_pressure;BME280_temperature;BME280_humidity;BME280_pressure;Samples;Min_cycle;Max_cycle;Signal;HPM_P1;HPM_P2
2021/07/07 00:01:32;;;;;;;4.97;4.78;;;;;;;14.09;78.11;100853.00;4308942;33;20085;-74
2021/07/07 00:03:57;;;;;;;4.70;4.50;;;;;;;14.01;78.85;100855.28;4305749;33;20094;-73
2021/07/07 00:06:22;;;;;;;4.95;4.75;;;;;;;13.81;79.19;100838.06;4321683;32;20122;-73
2021/07/07 00:08:48;;;;;;;4.80;4.60;;;;;;;13.73;79.31;100852.62;4320792;32;20875;-74
2021/07/07 00:11:13;;;;;;;4.57;4.37;;;;;;;13.63;80.17;100862.06;4323803;32;20067;-74
2021/07/07 00:13:38;;;;;;;4.60;4.40;;;;;;;12.82;80.52;100741.34;4322292;33;20269;-74
2021/07/07 00:16:04;;;;;;;4.72;4.53;;;;;;;13.13;81.49;100800.09;4325330;32;20612;-73
2021/07/07 00:18:29;;;;;;;4.60;4.40;;;;;;;13.29;82.36;100842.12;4311494;33;20152;-74
2021/07/07 00:20:55;;;;;;;5.85;5.55;;;;;;;12.52;81.71;100710.66;4317246;33;20086;-73
2021/07/07 00:23:24;;;;;;;4.70;4.50;;;;;;;12.96;81.39;100788.78;4323124;32;20078;-74
2021/07/07 00:25:50;;;;;;;4.90;4.70;;;;;;;13.39;81.95;100850.37;4322117;32;20090;-73
2021/07/07 00:28:15;;;;;;;4.75;4.55;;;;;;;13.37;81.92;100845.22;4321344;32;20142;-74
2021/07/07 00:30:41;;;;;;;4.80;4.60;;;;;;;13.37;82.02;100850.47;4309075;32;20643;-73
2021/07/07 00:33:06;;;;;;;4.80;4.60;;;;;;;13.33;82.14;100839.28;4325587;32;20132;-74
2021/07/07 00:35:31;;;;;;;4.68;4.47;;;;;;;13.37;82.20;100845.22;4362457;32;20097;-73
2021/07/07 00:37:57;;;;;;;4.60;4.40;;;;;;;13.40;82.25;100841.53;4308968;33;20513;-74
2021/07/07 00:40:22;;;;;;;4.68;4.47;;;;;;;13.33;82.26;100839.28;4327639;32;20078;-74
2021/07/07 00:42:48;;;;;;;4.85;4.65;;;;;;;13.49;81.63;100847.09;4320819;32;20117;-74
2021/07/07 00:45:13;;;;;;;4.60;4.40;;;;;;;13.44;81.58;100833.31;4343079;32;20165;-74
2021/07/07 00:47:39;;;;;;;4.60;4.40;;;;;;;13.61;81.09;100844.59;4333701;32;20077;-73
2021/07/07 00:50:05;;;;;;;4.70;4.50;;;;;;;13.64;80.61;100840.00;4342999;32;20070;-73
2021/07/07 00:52:33;;;;;;;4.68;4.47;;;;;;;13.70;79.94;100830.84;4337577;32;20079;-74
2021/07/07 00:55:01;;;;;;;4.60;4.40;;;;;;;13.73;79.61;100830.66;4351855;32;20066;-75
2021/07/07 00:57:33;;;;;;;4.80;4.60;;;;;;;13.57;79.08;100805.25;4364140;32;20053;-74
2021/07/07 00:59:59;;;;;;;4.78;4.57;;;;;;;13.82;78.87;100835.34;4353415;32;20592;-73
2021/07/07 01:02:24;;;;;;;5.45;5.15;;;;;;;13.70;79.45;100836.13;4350803;32;20070;-73
2021/07/07 01:04:49;;;;;;;4.80;4.60;;;;;;;13.43;80.11;100829.00;4347894;32;20589;-74
2021/07/07 01:07:15;;;;;;;5.47;5.28;;;;;;;13.57;79.95;100847.44;4330292;32;20094;-72
2021/07/07 01:09:40;;;;;;;5.12;4.60;;;;;;;13.51;80.38;100841.69;4334152;32;20073;-73
2021/07/07 01:12:07;;;;;;;4.60;4.40;;;;;;;13.59;80.46;100859.69;4322710;32;20664;-72
2021/07/07 01:14:32;;;;;;;4.80;4.60;;;;;;;13.20;80.00;100795.28;4334518;32;20136;-73
2021/07/07 01:16:57;;;;;;;4.60;4.40;;;;;;;13.50;80.23;100838.22;4320965;32;20628;-73
2021/07/07 01:19:25;;;;;;;4.90;4.70;;;;;;;13.57;79.94;100844.81;4322362;32;20081;-72
2021/07/07 01:24:39;;;;;;;5.00;4.80;;;;;;;13.55;80.34;100849.34;4331731;32;20082;-73
2021/07/07 01:27:07;;;;;;;4.55;4.35;;;;;;;13.56;80.40;100855.44;4348094;32;20058;-74
2021/07/07 01:29:33;;;;;;;4.93;4.72;;;;;;;12.74;80.57;100744.44;4333515;32;20704;-73
2021/07/07 01:32:07;;;;;;;4.60;4.40;;;;;;;13.60;80.60;100856.97;4335802;32;20062;-74
2021/07/07 01:34:32;;;;;;;4.80;4.60;;;;;;;13.60;80.88;100850.84;4333004;32;20086;-73
2021/07/07 01:37:08;;;;;;;4.80;4.60;;;;;;;13.05;81.04;100768.94;4325612;32;20077;-74
2021/07/07 01:39:33;;;;;;;4.75;4.55;;;;;;;13.34;80.73;100822.50;4329861;32;20070;-75
2021/07/07 01:42:09;;;;;;;4.65;4.45;;;;;;;10.01;80.85;100326.75;4339021;32;20982;-74
2021/07/07 01:44:37;;;;;;;4.78;4.57;;;;;;;11.78;80.72;100561.59;4334492;32;20744;-74
2021/07/07 01:47:11;;;;;;;5.00;4.70;;;;;;;11.92;80.66;100585.31;4333840;32;20391;-72
2021/07/07 01:49:52;;;;;;;5.32;5.12;;;;;;;12.08;80.97;100608.94;4336468;32;20589;-74
2021/07/07 01:52:28;;;;;;;4.95;4.75;;;;;;;9.87;80.48;100268.06;4337976;32;20085;-75
2021/07/07 01:54:58;;;;;;;4.40;4.20;;;;;;;13.61;81.41;100861.31;4341529;32;20089;-73
2021/07/07 01:57:26;;;;;;;4.70;4.50;;;;;;;13.61;81.03;100855.16;4338154;32;20092;-73
2021/07/07 01:59:51;;;;;;;4.45;4.25;;;;;;;13.59;81.11;100852.62;4353490;32;20057;-73
2021/07/07 02:02:19;;;;;;;4.60;4.40;;;;;;;13.46;81.06;100833.25;4351599;32;20078;-74
2021/07/07 02:04:44;;;;;;;4.85;4.65;;;;;;;12.69;81.15;100722.84;4341973;32;20096;-73
2021/07/07 02:07:10;;;;;;;4.70;4.50;;;;;;;13.43;81.54;100834.28;4355539;32;20496;-73
2021/07/07 02:09:35;;;;;;;5.00;4.80;;;;;;;13.02;80.47;100808.62;4345102;32;20066;-74
2021/07/07 02:12:15;;;;;;;4.80;4.60;;;;;;;13.41;81.32;100830.91;4344688;32;20131;-74
2021/07/07 02:15:03;;;;;;;5.57;5.28;;;;;;;10.78;81.19;100443.94;4344922;32;20682;-72
2021/07/07 02:17:41;;;;;;;5.00;4.80;;;;;;;10.58;81.84;100393.44;4360284;32;20057;-75
2021/07/07 02:20:22;;;;;;;4.80;4.60;;;;;;;12.65;81.42;100755.56;4356265;32;20085;-74
2021/07/07 02:22:55;;;;;;;5.18;4.97;;;;;;;11.25;81.15;100489.41;4357584;32;20648;-73
2021/07/07 02:25:34;;;;;;;4.70;4.50;;;;;;;12.97;81.79;100773.84;4343897;32;20136;-73
2021/07/07 02:28:23;;;;;;;4.60;4.40;;;;;;;11.95;81.63;100600.94;4344433;32;20087;-73
2021/07/07 02:30:48;;;;;;;5.57;5.28;;;;;;;11.11;81.24;100521.72;4354416;32;20104;-74
2021/07/07 02:36:12;;;;;;;4.90;4.70;;;;;;;13.39;82.01;100889.91;4344595;32;20078;-73
2021/07/07 02:38:58;;;;;;;4.75;4.55;;;;;;;10.52;82.28;100385.94;4358382;32;20074;-75
2021/07/07 02:41:27;;;;;;;5.05;4.85;;;;;;;11.00;82.45;100469.81;4362857;32;20340;-73
2021/07/07 02:44:02;;;;;;;4.65;4.45;;;;;;;11.03;82.72;100482.78;4352815;32;20474;-73
2021/07/07 02:46:33;;;;;;;4.78;4.57;;;;;;;11.77;83.00;100670.34;4368994;32;20102;-75
2021/07/07 02:49:01;;;;;;;4.62;4.43;;;;;;;12.98;83.76;100836.09;4354775;32;20275;-72
2021/07/07 02:51:38;;;;;;;4.60;4.40;;;;;;;9.85;83.81;100331.97;4346844;32;20071;-73
2021/07/07 02:54:11;;;;;;;4.60;4.40;;;;;;;11.65;84.21;100634.25;4344803;32;20085;-73
2021/07/07 02:56:37;;;;;;;5.18;4.87;;;;;;;12.94;84.39;100858.31;4341870;32;20081;-72
2021/07/07 02:59:02;;;;;;;4.60;4.40;;;;;;;12.90;84.33;100864.69;4354420;32;20156;-73
2021/07/07 03:01:30;;;;;;;5.20;4.80;;;;;;;12.20;84.61;100762.56;4340640;32;20663;-73
2021/07/07 03:03:55;;;;;;;4.40;4.20;;;;;;;12.38;84.58;100793.09;4341482;32;20252;-73
2021/07/07 03:06:23;;;;;;;4.82;4.62;;;;;;;12.82;85.11;100859.88;4369058;32;20192;-72
2021/07/07 03:08:48;;;;;;;4.43;4.22;;;;;;;12.79;84.94;100865.34;4342425;32;20074;-72
2021/07/07 03:11:16;;;;;;;4.82;4.62;;;;;;;12.77;85.18;100869.84;4366513;32;20164;-73
2021/07/07 03:13:41;;;;;;;4.57;4.32;;;;;;;12.73;85.12;100865.69;4364039;32;20571;-72
2021/07/07 03:16:07;;;;;;;4.70;4.50;;;;;;;12.65;85.22;100855.59;4343520;32;20069;-73
2021/07/07 03:18:32;;;;;;;4.47;4.28;;;;;;;12.72;85.45;100850.81;4365779;32;20070;-71
2021/07/07 03:21:00;;;;;;;4.50;4.30;;;;;;;12.17;85.43;100765.41;4346206;32;20081;-73
2021/07/07 03:23:28;;;;;;;4.55;4.35;;;;;;;12.79;85.26;100867.97;4351861;32;20089;-73
2021/07/07 03:25:53;;;;;;;4.60;4.40;;;;;;;12.80;84.95;100874.06;4355785;32;20070;-73
2021/07/07 03:28:19;;;;;;;4.60;4.40;;;;;;;10.62;84.58;100541.06;4356565;32;20096;-73
2021/07/07 03:31:07;;;;;;;4.70;4.50;;;;;;;8.91;84.37;100224.41;4345821;32;20116;-76
2021/07/07 03:33:36;;;;;;;4.75;4.55;;;;;;;9.97;84.33;100438.78;4377492;32;20204;-73
2021/07/07 03:36:24;;;;;;;5.25;4.95;;;;;;;11.11;84.71;100634.66;4354699;32;20078;-72
2021/07/07 03:38:50;;;;;;;4.50;4.30;;;;;;;11.47;84.83;100657.19;4365930;32;20671;-74
2021/07/07 03:41:18;;;;;;;4.60;4.40;;;;;;;12.42;85.38;100824.50;4347591;32;20097;-71
2021/07/07 03:43:46;;;;;;;4.80;4.60;;;;;;;12.78;85.78;100892.59;4349362;32;20796;-73
2021/07/07 03:46:13;;;;;;;4.28;4.07;;;;;;;12.78;85.57;100901.34;4353854;32;20127;-73
2021/07/07 03:48:39;;;;;;;4.43;4.22;;;;;;;12.77;85.44;100901.44;4355574;32;20066;-73
2021/07/07 03:51:06;;;;;;;4.50;4.30;;;;;;;12.77;85.82;100907.56;4340977;32;20680;-72
2021/07/07 03:53:32;;;;;;;5.00;4.80;;;;;;;12.82;85.74;100909.91;4348993;32;20132;-73
2021/07/07 03:55:57;;;;;;;4.55;4.35;;;;;;;12.74;85.77;100889.28;4344373;32;20674;-72
2021/07/07 03:58:23;;;;;;;4.40;4.20;;;;;;;12.93;85.28;100919.84;4357348;32;20196;-73
2021/07/07 04:00:48;;;;;;;4.45;4.25;;;;;;;12.68;85.08;100871.22;4341534;32;20077;-73
2021/07/07 04:03:13;;;;;;;4.50;4.30;;;;;;;12.66;85.13;100865.19;4356610;32;20084;-73
2021/07/07 04:05:40;;;;;;;4.50;4.30;;;;;;;13.05;84.78;100923.50;4342293;32;20845;-73
2021/07/07 04:08:08;;;;;;;4.45;4.25;;;;;;;13.09;85.03;100910.09;4348196;32;20062;-72
2021/07/07 04:10:33;;;;;;;4.53;4.32;;;;;;;13.26;84.50;100945.13;4366952;32;20081;-73
2021/07/07 04:12:58;;;;;;;4.30;4.10;;;;;;;13.22;84.06;100909.34;4342932;32;20605;-73
2021/07/07 04:15:24;;;;;;;4.50;4.30;;;;;;;13.57;84.14;100923.94;4342605;32;20066;-73
2021/07/07 04:17:49;;;;;;;4.55;4.35;;;;;;;14.28;82.53;100940.62;4343608;32;20100;-73
2021/07/07 04:20:17;;;;;;;4.50;4.30;;;;;;;14.81;79.49;100927.53;4369168;32;20540;-73
2021/07/07 04:22:42;;;;;;;4.47;4.28;;;;;;;15.60;77.50;100938.09;4356183;32;20058;-72
2021/07/07 04:25:08;;;;;;;4.60;4.40;;;;;;;16.11;74.61;100925.63;4341749;32;20338;-73
2021/07/07 04:27:36;;;;;;;4.57;4.37;;;;;;;16.94;72.52;100940.81;4366220;32;20078;-73
2021/07/07 04:30:03;;;;;;;5.10;4.90;;;;;;;17.56;69.80;100933.47;4358217;32;20116;-72
2021/07/07 04:32:28;;;;;;;5.00;4.80;;;;;;;17.50;67.30;100941.87;4342961;32;20337;-73
2021/07/07 04:34:54;;;;;;;4.90;4.70;;;;;;;17.03;68.17;100947.22;4353821;32;20678;-73
2021/07/07 04:37:19;;;;;;;5.12;4.93;;;;;;;16.69;69.26;100947.03;4339902;32;20084;-72
2021/07/07 04:39:45;;;;;;;5.00;4.80;;;;;;;16.43;70.34;100926.94;4264916;32;20073;-72
2021/07/07 04:42:10;;;;;;;4.80;4.60;;;;;;;16.47;71.13;100907.19;4345593;32;20124;-73
2021/07/07 04:44:36;;;;;;;5.00;4.80;;;;;;;16.92;70.13;100944.53;4359294;32;20058;-73
2021/07/07 04:47:03;;;;;;;4.90;4.70;;;;;;;17.29;69.97;100947.03;4352652;32;20073;-73
2021/07/07 04:49:29;;;;;;;5.00;4.80;;;;;;;16.98;67.19;100808.00;4369153;32;20061;-74
2021/07/07 04:51:54;;;;;;;4.93;4.72;;;;;;;18.18;65.56;100940.09;4340650;32;20089;-72
2021/07/07 04:54:20;;;;;;;5.10;4.90;;;;;;;18.65;64.87;100938.03;4334125;32;20415;-74
2021/07/07 04:56:48;;;;;;;4.90;4.70;;;;;;;18.64;63.17;100904.47;4343701;32;20074;-74
2021/07/07 04:59:14;;;;;;;5.25;5.05;;;;;;;19.11;63.29;100944.84;4336822;32;20633;-73
2021/07/07 05:01:40;;;;;;;5.12;4.93;;;;;;;19.02;62.57;100924.34;4336172;32;20066;-73
2021/07/07 05:04:05;;;;;;;4.93;4.72;;;;;;;19.30;62.25;100969.91;4337689;32;20075;-73
2021/07/07 05:06:34;;;;;;;5.00;4.80;;;;;;;19.79;60.70;100917.81;4331752;32;20105;-72
2021/07/07 05:08:59;;;;;;;5.40;5.20;;;;;;;20.59;59.33;100950.69;4353442;32;20641;-73
2021/07/07 05:11:25;;;;;;;5.40;5.20;;;;;;;20.90;57.64;100948.72;4328715;32;20089;-73
2021/07/07 05:13:53;;;;;;;5.20;5.00;;;;;;;20.97;55.95;100943.69;4348723;32;20634;-75
2021/07/07 05:16:19;;;;;;;5.40;5.10;;;;;;;21.01;55.92;100957.59;4326537;32;20145;-73
2021/07/07 05:18:45;;;;;;;5.30;5.10;;;;;;;21.40;54.87;100942.31;4322249;32;20378;-74
2021/07/07 05:21:12;;;;;;;5.40;5.10;;;;;;;21.42;53.76;100916.31;4314988;32;20204;-74
2021/07/07 05:23:37;;;;;;;5.30;5.10;;;;;;;22.11;54.68;100943.62;4314484;32;20724;-74
2021/07/07 05:26:03;;;;;;;5.40;5.20;;;;;;;22.57;53.03;100928.44;4327328;32;20082;-74
2021/07/07 05:28:29;;;;;;;5.35;5.15;;;;;;;23.38;50.43;100940.81;4316234;32;20077;-74
2021/07/07 05:30:57;;;;;;;5.53;5.32;;;;;;;24.07;50.30;100936.34;4324183;33;20075;-75
2021/07/07 05:33:33;;;;;;;5.53;5.22;;;;;;;23.58;48.58;100937.91;4315131;32;20154;-74
2021/07/07 05:36:06;;;;;;;5.40;5.20;;;;;;;22.42;51.21;100933.47;4328153;32;20495;-74
2021/07/07 05:38:37;;;;;;;5.68;5.22;;;;;;;21.26;52.67;100828.84;4350894;32;20093;-73
2021/07/07 05:41:03;;;;;;;5.30;5.10;;;;;;;21.30;54.68;100917.47;4325631;32;20074;-74
2021/07/07 05:43:29;;;;;;;5.40;5.20;;;;;;;21.05;55.71;100945.66;4332742;32;20190;-73
2021/07/07 05:48:46;;;;;;;5.45;5.22;;;;;;;20.31;56.92;100885.69;4308298;32;20584;-74
2021/07/07 05:51:11;;;;;;;5.43;5.22;;;;;;;20.95;56.59;100948.31;4325364;32;20091;-74
2021/07/07 05:53:36;;;;;;;5.30;5.10;;;;;;;21.01;57.05;100950.41;4336429;32;20145;-74
2021/07/07 05:56:07;;;;;;;5.45;5.20;;;;;;;21.35;56.28;100960.62;4351367;32;20077;-74
2021/07/07 05:58:34;;;;;;;5.30;5.10;;;;;;;21.91;55.08;100959.75;4353150;32;20414;-73
2021/07/07 06:00:59;;;;;;;5.40;5.20;;;;;;;21.96;54.80;100958.47;4339278;32;20122;-74
2021/07/07 06:03:25;;;;;;;5.25;5.05;;;;;;;21.50;54.77;100951.19;4354053;32;20123;-73
2021/07/07 06:05:50;;;;;;;5.50;5.20;;;;;;;20.84;56.02;100913.78;4340507;32;20889;-74
2021/07/07 06:08:18;;;;;;;5.15;4.95;;;;;;;20.76;57.62;100970.47;4365030;32;20062;-73
2021/07/07 06:10:46;;;;;;;5.97;5.68;;;;;;;20.61;58.05;100972.72;4348501;32;20086;-73
2021/07/07 06:13:12;;;;;;;5.20;5.00;;;;;;;20.51;58.50;100961.19;4351165;32;20072;-75
2021/07/07 06:15:40;;;;;;;5.18;4.97;;;;;;;20.27;59.34;100964.22;4354674;32;20070;-73
2021/07/07 06:18:05;;;;;;;7.28;5.05;;;;;;;20.04;60.40;100982.22;4352465;32;20677;-74
2021/07/07 06:20:31;;;;;;;5.28;5.07;;;;;;;19.08;60.38;100848.50;4352250;32;20070;-73
2021/07/07 06:22:56;;;;;;;5.10;4.90;;;;;;;19.77;60.61;100994.31;4342300;32;20062;-73
2021/07/07 06:25:22;;;;;;;5.43;5.20;;;;;;;19.58;61.48;100963.06;4354968;32;20102;-73
2021/07/07 06:27:47;;;;;;;5.30;5.10;;;;;;;19.77;61.83;100981.00;4352069;32;20558;-72
2021/07/07 06:30:14;;;;;;;5.10;4.90;;;;;;;19.65;62.68;100993.53;4344760;32;20082;-73
2021/07/07 06:32:43;;;;;;;5.10;4.90;;;;;;;19.75;61.50;100982.97;4352378;32;20062;-73
2021/07/07 06:35:12;;;;;;;5.20;5.00;;;;;;;19.85;60.55;100965.19;4349836;32;20177;-73
2021/07/07 06:37:40;;;;;;;5.20;5.00;;;;;;;20.05;61.04;101006.09;4351396;32;20062;-72
2021/07/07 06:40:11;;;;;;;5.22;5.03;;;;;;;19.56;59.97;100894.97;4348853;32;20124;-71
2021/07/07 06:42:36;;;;;;;5.20;5.00;;;;;;;20.07;61.09;101003.28;4365256;32;20086;-73
2021/07/07 06:45:05;;;;;;;5.10;4.90;;;;;;;20.22;60.94;101009.91;4368339;32;20073;-73
2021/07/07 06:47:31;;;;;;;4.95;4.75;;;;;;;20.49;60.22;101003.13;4360689;32;20353;-73
2021/07/07 06:49:56;;;;;;;5.40;5.10;;;;;;;19.65;59.50;100832.94;4353948;32;20062;-74
2021/07/07 06:52:21;;;;;;;5.25;5.05;;;;;;;21.04;58.83;101006.16;4354155;32;20184;-73
2021/07/07 06:54:48;;;;;;;5.20;5.00;;;;;;;20.88;58.73;101011.22;4356889;32;20333;-72
2021/07/07 06:57:13;;;;;;;5.00;4.80;;;;;;;20.63;59.53;101024.09;4349681;32;20088;-73
2021/07/07 06:59:38;;;;;;;5.30;5.10;;;;;;;20.52;59.46;101010.84;4367070;32;20575;-72
2021/07/07 07:02:06;;;;;;;5.57;5.28;;;;;;;20.82;57.67;101014.44;4364440;32;20066;-72
2021/07/07 07:04:32;;;;;;;5.85;5.55;;;;;;;20.67;59.33;101019.34;4353627;32;20155;-74
2021/07/07 07:07:00;;;;;;;5.47;5.18;;;;;;;20.78;57.86;100989.03;4369653;32;20066;-72
2021/07/07 07:09:36;;;;;;;;;;;;;;;;;;;;;
2021/07/07 07:12:05;;;;;;;6.00;5.60;;;;;;;21.45;56.63;101017.53;4362190;32;20066;-73
2021/07/07 07:14:54;;;;;;;5.30;5.10;;;;;;;21.67;56.05;100978.97;4351974;32;20085;-73
2021/07/07 07:20:29;;;;;;;5.20;5.00;;;;;;;22.06;53.93;101005.53;4356051;32;20164;-73
2021/07/07 07:22:57;;;;;;;5.53;5.28;;;;;;;21.88;53.52;101000.13;4355399;32;20468;-73
2021/07/07 07:25:22;;;;;;;5.40;5.20;;;;;;;21.73;55.08;101044.34;4345726;32;20152;-74
2021/07/07 07:28:11;;;;;;;5.15;4.95;;;;;;;21.12;55.47;100922.72;4364097;32;20074;-74
2021/07/07 07:30:54;;;;;;;7.93;7.53;;;;;;;19.75;55.75;100724.66;4355586;32;20073;-74
2021/07/07 07:33:19;;;;;;;;;;;;;;;22.03;55.53;101042.41;4347278;32;20608;-75
2021/07/07 07:36:06;;;;;;;5.70;5.40;;;;;;;21.99;54.87;101039.19;4357023;32;19997;-73
2021/07/07 07:38:32;;;;;;;5.35;5.05;;;;;;;22.16;54.23;101048.28;4369201;32;20073;-74
2021/07/07 07:41:49;;;;;;;5.30;5.05;;;;;;;22.15;54.42;101051.94;4337220;32;20512;-73
2021/07/07 07:44:46;;;;;;;5.20;5.00;;;;;;;18.72;54.83;100513.00;4349024;32;20066;-75
2021/07/07 07:48:32;;;;;;;5.62;5.32;;;;;;;18.38;52.91;100451.38;4498518;31;20806;-74
2021/07/07 07:51:07;;;;;;;5.57;5.28;;;;;;;18.18;53.64;100464.63;4455146;31;20605;-72
2021/07/07 07:53:35;;;;;;;5.22;5.03;;;;;;;18.58;54.05;100542.63;4449554;32;20162;-74
2021/07/07 07:56:03;;;;;;;6.15;5.75;;;;;;;20.07;54.07;100729.69;4413945;32;20144;-73
2021/07/07 07:58:39;;;;;;;;;;;;;;;;;;;;;
2021/07/07 08:01:04;;;;;;;5.32;5.12;;;;;;;20.76;53.61;100842.47;4414170;32;20103;-73
2021/07/07 08:03:33;;;;;;;5.07;4.87;;;;;;;21.53;53.71;100958.09;4417020;32;20585;-71
2021/07/07 08:05:58;;;;;;;5.00;4.80;;;;;;;21.23;54.01;100873.69;4426732;32;20060;-72
2021/07/07 08:08:23;;;;;;;5.30;5.00;;;;;;;22.37;52.48;101057.91;4413153;32;20129;-74
2021/07/07 08:10:49;;;;;;;5.20;5.00;;;;;;;22.34;53.53;101051.03;4411379;32;21161;-73
2021/07/07 08:13:16;;;;;;;5.20;5.00;;;;;;;22.29;53.32;101023.87;4412746;32;20068;-72
2021/07/07 08:15:42;;;;;;;6.87;6.47;;;;;;;22.69;52.08;101052.97;4423445;32;20198;-72
2021/07/07 08:18:08;;;;;;;5.10;4.90;;;;;;;22.68;51.15;101039.72;4411443;32;20107;-74
2021/07/07 08:20:34;;;;;;;5.10;4.90;;;;;;;22.33;52.28;101051.19;4415672;32;20075;-74
2021/07/07 08:22:59;;;;;;;5.30;5.00;;;;;;;22.42;52.94;101055.66;4411989;32;20091;-74
2021/07/07 08:25:25;;;;;;;5.18;4.97;;;;;;;22.37;52.76;101050.75;4414525;32;20072;-74
2021/07/07 08:27:50;;;;;;;5.20;5.00;;;;;;;22.50;52.52;101055.75;4407169;32;20068;-74
2021/07/07 08:30:16;;;;;;;5.20;5.00;;;;;;;22.53;52.58;101031.34;4415056;32;20085;-74
2021/07/07 08:32:41;;;;;;;5.15;4.95;;;;;;;;;;4406340;32;20349;-74
2021/07/07 08:35:07;;;;;;;5.18;4.97;;;;;;;22.87;51.98;101041.41;4436914;32;20115;-75
2021/07/07 08:37:32;;;;;;;5.37;5.18;;;;;;;22.82;52.17;101047.22;4417941;32;20209;-73
2021/07/07 08:39:58;;;;;;;5.25;5.00;;;;;;;22.97;52.50;101039.50;4426777;32;20206;-74
2021/07/07 08:42:23;;;;;;;5.70;5.50;;;;;;;22.82;52.88;101041.03;4412762;32;20103;-72
2021/07/07 08:44:48;;;;;;;5.28;5.07;;;;;;;22.89;51.31;101052.81;4411952;32;21557;-73
2021/07/07 08:47:14;;;;;;;5.22;5.03;;;;;;;22.99;51.56;101042.91;4410453;32;20087;-73
2021/07/07 08:49:39;;;;;;;5.50;5.20;;;;;;;23.19;51.43;101048.94;4405958;32;20084;-73
2021/07/07 08:52:05;;;;;;;5.60;5.30;;;;;;;23.62;49.30;101044.59;4417070;32;20261;-73
2021/07/07 08:54:31;;;;;;;5.20;5.00;;;;;;;24.11;48.89;101041.41;4408920;32;20216;-73
2021/07/07 08:57:09;;;;;;;5.78;5.47;;;;;;;24.21;48.26;101047.47;4416355;32;20088;-74
2021/07/07 08:59:35;;;;;;;5.20;5.00;;;;;;;24.15;48.06;101042.75;4400587;32;20399;-73
2021/07/07 09:02:04;;;;;;;5.40;5.20;;;;;;;24.00;47.11;101010.34;4403489;32;20088;-75
2021/07/07 09:04:30;;;;;;;5.30;5.10;;;;;;;23.96;45.25;101040.34;4424837;32;20361;-74
2021/07/07 09:06:59;;;;;;;5.50;5.20;;;;;;;24.28;46.97;100997.56;4421234;32;20081;-74
2021/07/07 09:09:37;;;;;;;5.30;5.10;;;;;;;25.16;43.80;101038.34;4399132;32;20096;-74
2021/07/07 09:12:35;;;;;;;5.37;5.18;;;;;;;25.39;41.22;101034.00;4420400;32;20543;-74
2021/07/07 09:15:06;;;;;;;5.30;5.10;;;;;;;25.33;39.32;100993.56;4395644;32;20094;-74
2021/07/07 09:17:39;;;;;;;5.28;5.07;;;;;;;25.72;39.44;100996.34;4405307;32;20690;-74
2021/07/07 09:20:36;;;;;;;5.30;5.10;;;;;;;26.08;38.66;101036.28;4408265;32;20072;-73
2021/07/07 09:23:20;;;;;;;5.32;5.12;;;;;;;26.22;40.17;101038.22;4400247;32;20072;-74
2021/07/07 09:25:46;;;;;;;5.30;5.10;;;;;;;26.10;39.34;101047.69;4425035;32;20072;-74
2021/07/07 09:28:16;;;;;;;5.20;5.00;;;;;;;25.50;40.64;101029.28;4429875;32;20107;-75
2021/07/07 09:30:41;;;;;;;6.10;5.80;;;;;;;25.51;40.63;101039.88;4399606;32;20082;-76
2021/07/07 09:33:07;;;;;;;5.60;5.30;;;;;;;25.48;40.33;101053.69;4413086;32;20184;-74
2021/07/07 09:35:32;;;;;;;5.60;5.30;;;;;;;25.21;40.51;101052.12;4399078;32;20076;-75
2021/07/07 09:37:57;;;;;;;5.43;5.22;;;;;;;24.75;40.01;101065.97;4402263;32;20104;-75
2021/07/07 09:40:23;;;;;;;5.47;5.28;;;;;;;24.56;39.92;101045.66;4397589;32;20896;-75
2021/07/07 09:42:51;;;;;;;5.47;5.20;;;;;;;24.95;39.86;101058.47;4415183;32;20203;-75
2021/07/07 09:45:18;;;;;;;5.32;5.12;;;;;;;25.27;37.98;101067.59;4423665;32;20116;-74
2021/07/07 09:47:44;;;;;;;5.72;5.43;;;;;;;25.42;39.63;101065.09;4402578;32;20520;-75
2021/07/07 09:50:10;;;;;;;5.18;4.97;;;;;;;25.50;38.79;101069.59;4414104;32;20530;-75
2021/07/07 09:52:35;;;;;;;5.30;5.10;;;;;;;25.71;38.62;101031.47;4404592;32;20677;-76
2021/07/07 09:55:02;;;;;;;5.90;5.50;;;;;;;26.26;37.62;101057.56;4400114;32;20084;-74
2021/07/07 09:57:27;;;;;;;5.57;5.37;;;;;;;26.49;37.14;101054.09;4413021;32;20065;-75
2021/07/07 09:59:52;;;;;;;5.70;5.40;;;;;;;26.54;36.75;101014.88;4408713;32;20594;-76
2021/07/07 10:02:18;;;;;;;5.70;5.40;;;;;;;26.94;36.87;101056.03;4399513;32;20072;-75
2021/07/07 10:04:46;;;;;;;5.62;5.35;;;;;;;27.12;35.43;101061.09;4417568;32;20205;-76
2021/07/07 10:07:15;;;;;;;5.47;5.18;;;;;;;26.80;36.17;100967.94;4412566;32;20084;-76
2021/07/07 10:09:43;;;;;;;5.68;5.43;;;;;;;27.52;35.78;101063.69;4399607;32;20081;-75
2021/07/07 10:12:09;;;;;;;5.65;5.35;;;;;;;27.56;33.79;101044.25;4405055;32;20068;-75
2021/07/07 10:14:34;;;;;;;5.50;5.30;;;;;;;27.47;36.44;101060.72;4404647;32;20110;-75
2021/07/07 10:17:00;;;;;;;5.80;5.50;;;;;;;26.37;34.96;101065.22;4399290;32;20645;-74
2021/07/07 10:19:26;;;;;;;5.30;5.10;;;;;;;26.23;36.47;101069.50;4403531;32;20103;-75
2021/07/07 10:21:55;;;;;;;5.70;5.40;;;;;;;26.07;36.53;101069.56;4405178;32;20076;-75
2021/07/07 10:24:23;;;;;;;5.28;5.07;;;;;;;25.70;37.08;101016.31;4400091;32;20084;-76
2021/07/07 10:26:49;;;;;;;5.50;5.30;;;;;;;25.91;36.07;101066.91;4414371;32;20080;-75
2021/07/07 10:29:15;;;;;;;5.35;5.15;;;;;;;25.76;38.35;101070.28;4402104;32;20107;-74
2021/07/07 10:31:50;;;;;;;5.35;5.05;;;;;;;25.10;36.46;101072.09;4402672;32;20566;-74
2021/07/07 10:34:29;;;;;;;5.37;5.18;;;;;;;23.95;39.15;100969.78;4400325;32;20080;-75
2021/07/07 10:37:00;;;;;;;5.32;5.12;;;;;;;24.78;39.22;101071.03;4399275;32;20100;-75
2021/07/07 10:39:26;;;;;;;5.50;5.30;;;;;;;24.59;39.28;101085.56;4400939;32;20355;-75
2021/07/07 10:41:55;;;;;;;5.12;4.93;;;;;;;24.80;40.22;101090.50;4401047;32;20092;-75
2021/07/07 10:44:24;;;;;;;6.25;5.95;;;;;;;24.52;40.59;101097.97;4408098;32;20072;-75
2021/07/07 10:47:00;;;;;;;5.40;5.20;;;;;;;24.29;41.36;101093.12;4438149;32;20076;-75
2021/07/07 10:49:43;;;;;;;5.62;5.32;;;;;;;24.57;40.93;101095.59;4428410;32;20068;-74
2021/07/07 10:52:09;;;;;;;;;;;;;;;24.78;41.86;101099.72;4411663;32;20077;-75
2021/07/07 10:54:36;;;;;;;5.40;5.20;;;;;;;24.89;41.25;101104.78;4415187;32;19975;-75
2021/07/07 10:57:03;;;;;;;5.72;5.43;;;;;;;24.89;40.60;101102.09;4416890;32;20555;-74
2021/07/07 10:59:38;;;;;;;5.78;5.30;;;;;;;24.74;42.04;101111.78;4415791;32;20153;-75
2021/07/07 11:02:08;;;;;;;5.18;4.97;;;;;;;25.12;40.42;101098.78;4425075;32;20063;-75
2021/07/07 11:04:50;;;;;;;5.47;5.28;;;;;;;24.04;42.52;101051.94;4402065;32;20087;-76
2021/07/07 11:07:28;;;;;;;5.72;5.43;;;;;;;24.90;40.45;101098.41;4423711;32;20683;-75
2021/07/07 11:09:55;;;;;;;5.10;4.90;;;;;;;24.68;40.37;101114.13;4423202;32;20069;-73
2021/07/07 11:12:53;;;;;;;5.20;5.00;;;;;;;24.64;41.00;101110.06;4400516;32;20474;-76
2021/07/07 11:15:19;;;;;;;5.25;5.05;;;;;;;24.76;41.66;101117.84;4392478;32;20075;-75
2021/07/07 11:17:46;;;;;;;5.50;5.30;;;;;;;25.02;40.36;101102.47;4409997;32;20613;-74
2021/07/07 11:20:31;;;;;;;5.20;5.00;;;;;;;24.98;39.82;101117.22;4400539;32;20122;-76
2021/07/07 11:23:04;;;;;;;5.60;5.30;;;;;;;25.44;40.77;101116.81;4398119;32;20108;-73
2021/07/07 11:25:31;;;;;;;5.57;5.37;;;;;;;25.82;38.17;101092.91;4403895;32;20101;-75
2021/07/07 11:27:56;;;;;;;5.47;5.18;;;;;;;25.86;37.64;101110.44;4406236;32;20105;-75
2021/07/07 11:30:22;;;;;;;5.40;5.20;;;;;;;26.30;36.75;101096.56;4412773;32;20111;-75
2021/07/07 11:32:48;;;;;;;5.30;5.10;;;;;;;26.26;37.50;101109.50;4412958;32;20699;-75
2021/07/07 11:35:31;;;;;;;5.90;5.60;;;;;;;25.79;36.05;100983.88;4417213;32;20068;-75
2021/07/07 11:37:57;;;;;;;5.40;5.20;;;;;;;27.11;35.31;101120.59;4419114;32;20092;-75
2021/07/07 11:40:23;;;;;;;5.22;5.03;;;;;;;27.22;34.64;101085.13;4438298;32;20390;-73
2021/07/07 11:43:01;;;;;;;5.70;5.25;;;;;;;27.84;34.28;101114.63;4402341;32;21074;-75
2021/07/07 11:45:38;;;;;;;5.70;5.40;;;;;;;26.86;33.33;101110.81;4427197;32;20206;-73
2021/07/07 11:48:33;;;;;;;5.87;5.57;;;;;;;26.01;36.46;101087.22;4423560;32;20068;-74
2021/07/07 11:51:15;;;;;;;5.72;5.43;;;;;;;26.79;35.51;101120.59;4429454;32;20064;-76